createdAt,value
2018-02-11T00:00:44.997Z,0.00
2018-02-11T00:01:44.911Z,0.00
2018-02-11T00:02:44.834Z,0.00
2018-02-11T00:03:44.756Z,0.00
2018-02-11T00:04:44.659Z,0.00
2018-02-11T00:05:44.570Z,0.00
2018-02-11T00:06:44.493Z,0.00
2018-02-11T00:07:44.412Z,0.00
2018-02-11T00:08:44.321Z,0.00
2018-02-11T00:09:44.236Z,0.00
2018-02-11T00:10:44.160Z,0.00
2018-02-11T00:11:44.076Z,0.00
2018-02-11T00:12:43.985Z,0.00
2018-02-11T00:13:43.897Z,0.00
2018-02-11T00:14:43.828Z,0.00
2018-02-11T00:15:43.738Z,0.00
2018-02-11T00:16:43.659Z,0.00
2018-02-11T00:17:43.564Z,0.00
2018-02-11T00:18:43.482Z,0.00
2018-02-11T00:19:43.402Z,0.00
2018-02-11T00:20:43.313Z,0.00
2018-02-11T00:21:43.223Z,0.00
2018-02-11T00:22:43.142Z,0.00
2018-02-11T00:23:43.064Z,0.00
2018-02-11T00:24:42.974Z,0.00
2018-02-11T00:25:42.891Z,0.00
2018-02-11T00:26:42.809Z,0.00
2018-02-11T00:27:42.742Z,0.00
2018-02-11T00:28:42.642Z,0.00
2018-02-11T00:29:42.565Z,0.00
2018-02-11T00:30:42.466Z,0.00
2018-02-11T00:31:42.388Z,0.00
2018-02-11T00:32:42.313Z,0.00
2018-02-11T00:33:42.215Z,0.00
2018-02-11T00:34:42.140Z,0.00
2018-02-11T00:35:42.062Z,0.00
2018-02-11T00:36:41.966Z,0.00
2018-02-11T00:37:41.885Z,0.00
2018-02-11T00:38:41.797Z,0.00
2018-02-11T00:39:41.713Z,0.00
2018-02-11T00:40:41.624Z,0.00
2018-02-11T00:41:41.542Z,0.00
2018-02-11T00:42:41.462Z,0.00
2018-02-11T00:43:41.388Z,0.00
2018-02-11T00:44:41.295Z,0.00
2018-02-11T00:45:41.202Z,0.00
2018-02-11T00:46:41.119Z,0.00
2018-02-11T00:47:41.045Z,0.00
2018-02-11T00:48:40.953Z,0.00
2018-02-11T00:49:40.864Z,0.00
2018-02-11T00:50:40.791Z,0.00
2018-02-11T00:51:40.711Z,0.00
2018-02-11T00:52:40.622Z,0.00
2018-02-11T00:53:40.530Z,0.00
2018-02-11T00:54:40.445Z,0.00
2018-02-11T00:55:40.369Z,0.00
2018-02-11T00:56:40.277Z,0.00
2018-02-11T00:57:40.192Z,0.00
2018-02-11T00:58:40.102Z,0.00
2018-02-11T00:59:40.030Z,0.00
2018-02-11T01:00:39.941Z,0.00
2018-02-11T01:01:39.855Z,0.00
2018-02-11T01:02:39.772Z,0.00
2018-02-11T01:03:39.691Z,0.00
2018-02-11T01:04:39.607Z,0.00
2018-02-11T01:05:39.518Z,0.00
2018-02-11T01:06:39.429Z,0.00
2018-02-11T01:07:39.358Z,0.00
2018-02-11T01:08:39.272Z,0.00
2018-02-11T01:09:39.191Z,0.00
2018-02-11T01:10:39.098Z,0.00
2018-02-11T01:11:39.020Z,0.00
2018-02-11T01:12:38.933Z,0.00
2018-02-11T01:13:38.849Z,0.00
2018-02-11T01:14:38.756Z,0.00
2018-02-11T01:15:38.668Z,0.00
2018-02-11T01:16:38.597Z,0.00
2018-02-11T01:17:38.511Z,0.00
2018-02-11T01:18:38.418Z,0.00
2018-02-11T01:19:38.341Z,0.00
2018-02-11T01:20:38.274Z,0.00
2018-02-11T01:21:38.164Z,0.00
2018-02-11T01:22:38.094Z,0.00
2018-02-11T01:23:38.001Z,0.00
2018-02-11T01:24:37.959Z,0.00
2018-02-11T01:25:37.834Z,0.00
2018-02-11T01:26:37.743Z,0.00
2018-02-11T01:27:37.667Z,0.00
2018-02-11T01:28:37.590Z,0.00
2018-02-11T01:29:37.490Z,0.00
2018-02-11T01:30:37.409Z,0.00
2018-02-11T01:31:37.320Z,0.00
2018-02-11T01:32:37.244Z,0.00
2018-02-11T01:33:37.158Z,0.00
2018-02-11T01:34:37.071Z,0.00
2018-02-11T01:35:36.980Z,0.00
2018-02-11T01:36:36.898Z,0.00
2018-02-11T01:37:36.821Z,0.00
2018-02-11T01:38:36.741Z,0.00
2018-02-11T01:39:36.648Z,0.00
2018-02-11T01:40:36.569Z,0.00
2018-02-11T01:41:36.491Z,0.00
2018-02-11T01:42:36.396Z,0.00
2018-02-11T01:43:36.317Z,0.00
2018-02-11T01:44:36.228Z,0.00
2018-02-11T01:45:36.144Z,0.00
2018-02-11T01:46:36.080Z,0.00
2018-02-11T01:47:35.976Z,0.00
2018-02-11T01:48:35.894Z,0.00
2018-02-11T01:49:35.816Z,0.00
2018-02-11T01:50:35.726Z,0.00
2018-02-11T01:51:35.633Z,0.00
2018-02-11T01:52:35.549Z,0.00
2018-02-11T01:53:35.472Z,0.00
2018-02-11T01:54:35.392Z,0.00
2018-02-11T01:55:35.301Z,0.00
2018-02-11T01:56:35.206Z,0.00
2018-02-11T01:57:35.138Z,0.00
2018-02-11T01:58:35.048Z,0.00
2018-02-11T01:59:34.971Z,0.00
2018-02-11T02:00:34.877Z,0.00
2018-02-11T02:01:34.796Z,0.00
2018-02-11T02:02:34.711Z,0.00
2018-02-11T02:03:34.624Z,0.00
2018-02-11T02:04:34.533Z,0.00
2018-02-11T02:05:34.449Z,0.00
2018-02-11T02:06:34.376Z,0.00
2018-02-11T02:07:34.284Z,0.00
2018-02-11T02:08:34.200Z,0.00
2018-02-11T02:09:34.122Z,0.00
2018-02-11T02:10:34.040Z,0.00
2018-02-11T02:11:33.952Z,0.00
2018-02-11T02:12:33.873Z,0.00
2018-02-11T02:13:33.775Z,0.00
2018-02-11T02:14:33.690Z,0.00
2018-02-11T02:15:33.624Z,0.00
2018-02-11T02:16:33.531Z,0.00
2018-02-11T02:17:33.441Z,0.00
2018-02-11T02:18:33.352Z,0.00
2018-02-11T02:19:33.281Z,0.00
2018-02-11T02:20:33.188Z,0.00
2018-02-11T02:21:33.101Z,0.00
2018-02-11T02:22:33.019Z,0.00
2018-02-11T02:23:32.928Z,0.00
2018-02-11T02:24:32.857Z,0.00
2018-02-11T02:25:32.778Z,0.00
2018-02-11T02:26:32.678Z,0.00
2018-02-11T02:27:32.604Z,0.00
2018-02-11T02:28:32.526Z,0.00
2018-02-11T02:29:32.432Z,0.00
2018-02-11T02:30:32.335Z,0.00
2018-02-11T02:31:32.247Z,0.00
2018-02-11T02:32:32.177Z,0.00
2018-02-11T02:33:32.104Z,0.00
2018-02-11T02:34:32.005Z,0.00
2018-02-11T02:35:31.917Z,0.00
2018-02-11T02:36:31.828Z,0.00
2018-02-11T02:37:31.756Z,0.00
2018-02-11T02:38:31.664Z,0.00
2018-02-11T02:39:31.575Z,0.00
2018-02-11T02:40:31.504Z,0.00
2018-02-11T02:41:31.417Z,0.00
2018-02-11T02:42:31.335Z,0.00
2018-02-11T02:43:31.256Z,0.00
2018-02-11T02:44:31.149Z,0.00
2018-02-11T02:45:31.082Z,0.00
2018-02-11T02:46:30.990Z,0.00
2018-02-11T02:47:30.901Z,0.00
2018-02-11T02:48:30.819Z,0.00
2018-02-11T02:49:30.730Z,0.00
2018-02-11T02:50:30.654Z,0.00
2018-02-11T02:51:30.572Z,0.00
2018-02-11T02:52:30.476Z,0.00
2018-02-11T02:53:30.409Z,0.00
2018-02-11T02:54:30.303Z,0.00
2018-02-11T02:55:30.231Z,0.00
2018-02-11T02:56:30.155Z,0.00
2018-02-11T02:57:30.052Z,0.00
2018-02-11T02:58:29.974Z,0.00
2018-02-11T02:59:29.898Z,0.00
2018-02-11T03:00:29.804Z,0.00
2018-02-11T03:01:29.722Z,0.00
2018-02-11T03:02:29.627Z,0.00
2018-02-11T03:03:29.551Z,0.00
2018-02-11T03:04:29.473Z,0.00
2018-02-11T03:05:29.380Z,0.00
2018-02-11T03:06:29.300Z,0.00
2018-02-11T03:07:29.209Z,0.00
2018-02-11T03:08:29.129Z,0.00
2018-02-11T03:09:29.047Z,0.00
2018-02-11T03:10:28.958Z,0.00
2018-02-11T03:11:28.884Z,0.00
2018-02-11T03:12:28.797Z,0.00
2018-02-11T03:13:28.702Z,0.00
2018-02-11T03:14:28.621Z,0.00
2018-02-11T03:15:28.534Z,0.00
2018-02-11T03:16:28.452Z,0.00
2018-02-11T03:17:28.373Z,0.00
2018-02-11T03:18:28.284Z,0.00
2018-02-11T03:19:28.194Z,0.00
2018-02-11T03:20:28.110Z,0.00
2018-02-11T03:21:28.067Z,0.00
2018-02-11T03:22:27.950Z,0.00
2018-02-11T03:23:28.065Z,0.00
2018-02-11T03:24:27.767Z,0.00
2018-02-11T03:25:27.698Z,0.00
2018-02-11T03:26:27.611Z,0.00
2018-02-11T03:27:27.534Z,0.00
2018-02-11T03:28:27.435Z,0.00
2018-02-11T03:29:27.363Z,0.00
2018-02-11T03:30:27.270Z,0.00
2018-02-11T03:31:27.182Z,0.00
2018-02-11T03:32:27.103Z,0.00
2018-02-11T03:33:27.011Z,0.00
2018-02-11T03:34:26.936Z,0.00
2018-02-11T03:35:26.847Z,0.00
2018-02-11T03:36:26.759Z,0.00
2018-02-11T03:37:26.686Z,0.00
2018-02-11T03:38:26.583Z,0.00
2018-02-11T03:39:26.509Z,0.00
2018-02-11T03:40:26.437Z,0.00
2018-02-11T03:41:26.335Z,0.00
2018-02-11T03:42:26.263Z,0.00
2018-02-11T03:43:26.177Z,0.00
2018-02-11T03:44:26.083Z,0.00
2018-02-11T03:45:26.005Z,0.00
2018-02-11T03:46:25.908Z,0.00
2018-02-11T03:47:25.830Z,0.00
2018-02-11T03:48:25.760Z,0.00
2018-02-11T03:49:25.659Z,0.00
2018-02-11T03:50:25.580Z,0.00
2018-02-11T03:51:25.489Z,0.00
2018-02-11T03:52:25.408Z,0.00
2018-02-11T03:53:25.326Z,0.00
2018-02-11T03:54:25.233Z,0.00
2018-02-11T03:55:25.145Z,0.00
2018-02-11T03:56:25.068Z,0.00
2018-02-11T03:57:24.988Z,0.00
2018-02-11T03:58:24.918Z,0.00
2018-02-11T03:59:24.825Z,0.00
2018-02-11T04:00:24.732Z,0.00
2018-02-11T04:01:24.666Z,0.00
2018-02-11T04:02:24.560Z,0.00
2018-02-11T04:03:24.477Z,0.00
2018-02-11T04:04:24.391Z,0.00
2018-02-11T04:05:24.308Z,0.00
2018-02-11T04:06:24.225Z,0.00
2018-02-11T04:07:24.137Z,0.00
2018-02-11T04:08:24.060Z,0.00
2018-02-11T04:09:23.970Z,0.00
2018-02-11T04:10:23.888Z,0.00
2018-02-11T04:11:23.801Z,0.00
2018-02-11T04:12:23.756Z,0.00
2018-02-11T04:13:23.624Z,0.00
2018-02-11T04:14:23.543Z,0.00
2018-02-11T04:15:23.466Z,0.00
2018-02-11T04:16:23.389Z,0.00
2018-02-11T04:17:23.289Z,0.00
2018-02-11T04:18:23.198Z,0.00
2018-02-11T04:19:23.122Z,0.00
2018-02-11T04:20:23.041Z,0.00
2018-02-11T04:21:22.966Z,0.00
2018-02-11T04:22:22.869Z,0.00
2018-02-11T04:23:22.781Z,0.00
2018-02-11T04:24:22.702Z,0.00
2018-02-11T04:25:22.615Z,0.00
2018-02-11T04:26:22.549Z,0.00
2018-02-11T04:27:22.478Z,0.00
2018-02-11T04:28:22.364Z,0.00
2018-02-11T04:29:22.293Z,0.00
2018-02-11T04:30:22.194Z,0.00
2018-02-11T04:31:22.118Z,0.00
2018-02-11T04:32:22.014Z,0.00
2018-02-11T04:33:21.940Z,0.00
2018-02-11T04:34:21.862Z,0.00
2018-02-11T04:35:21.765Z,0.00
2018-02-11T04:36:21.679Z,0.00
2018-02-11T04:37:21.593Z,0.00
2018-02-11T04:38:21.518Z,0.00
2018-02-11T04:39:21.446Z,0.00
2018-02-11T04:40:21.340Z,0.00
2018-02-11T04:41:21.256Z,0.00
2018-02-11T04:42:21.173Z,0.00
2018-02-11T04:43:21.088Z,0.00
2018-02-11T04:44:21.005Z,0.00
2018-02-11T04:45:20.914Z,0.00
2018-02-11T04:46:20.836Z,0.00
2018-02-11T04:47:20.750Z,0.00
2018-02-11T04:48:20.668Z,0.00
2018-02-11T04:49:20.593Z,0.00
2018-02-11T04:50:20.489Z,0.00
2018-02-11T04:51:20.403Z,0.00
2018-02-11T04:52:20.322Z,0.00
2018-02-11T04:53:20.238Z,0.00
2018-02-11T04:54:20.157Z,0.00
2018-02-11T04:55:20.071Z,0.00
2018-02-11T04:56:19.989Z,0.00
2018-02-11T04:57:19.909Z,0.00
2018-02-11T04:58:19.819Z,0.00
2018-02-11T04:59:19.729Z,0.00
2018-02-11T05:00:19.645Z,0.00
2018-02-11T05:01:19.568Z,0.00
2018-02-11T05:02:19.485Z,0.00
2018-02-11T05:03:19.396Z,0.00
2018-02-11T05:04:19.316Z,0.00
2018-02-11T05:05:19.220Z,0.00
2018-02-11T05:06:19.142Z,0.00
2018-02-11T05:07:19.054Z,0.00
2018-02-11T05:08:18.970Z,0.00
2018-02-11T05:09:18.893Z,0.00
2018-02-11T05:10:18.799Z,0.00
2018-02-11T05:11:18.722Z,0.00
2018-02-11T05:12:18.644Z,0.00
2018-02-11T05:13:18.545Z,0.00
2018-02-11T05:14:18.458Z,0.00
2018-02-11T05:15:18.396Z,0.00
2018-02-11T05:16:18.296Z,0.00
2018-02-11T05:17:18.203Z,0.00
2018-02-11T05:18:18.120Z,0.00
2018-02-11T05:19:18.051Z,0.00
2018-02-11T05:20:17.958Z,0.00
2018-02-11T05:21:17.876Z,0.00
2018-02-11T05:22:17.793Z,0.00
2018-02-11T05:23:17.697Z,0.00
2018-02-11T05:24:17.624Z,0.00
2018-02-11T05:25:17.542Z,0.00
2018-02-11T05:26:17.446Z,0.00
2018-02-11T05:27:17.371Z,0.00
2018-02-11T05:28:17.281Z,0.00
2018-02-11T05:29:17.197Z,0.00
2018-02-11T05:30:17.112Z,0.00
2018-02-11T05:31:17.023Z,0.00
2018-02-11T05:32:16.953Z,0.00
2018-02-11T05:33:16.866Z,0.00
2018-02-11T05:34:16.773Z,0.00
2018-02-11T05:35:16.693Z,0.00
2018-02-11T05:36:16.611Z,0.00
2018-02-11T05:37:16.522Z,0.00
2018-02-11T05:38:16.450Z,0.00
2018-02-11T05:39:16.349Z,0.00
2018-02-11T05:40:16.276Z,0.00
2018-02-11T05:41:16.204Z,0.00
2018-02-11T05:42:16.094Z,0.00
2018-02-11T05:43:16.013Z,0.00
2018-02-11T05:44:15.929Z,0.00
2018-02-11T05:45:15.847Z,0.00
2018-02-11T05:46:15.764Z,0.00
2018-02-11T05:47:15.682Z,0.00
2018-02-11T05:48:15.584Z,0.00
2018-02-11T05:49:15.516Z,0.00
2018-02-11T05:50:15.422Z,0.00
2018-02-11T05:51:15.337Z,0.00
2018-02-11T05:52:15.254Z,0.00
2018-02-11T05:53:15.170Z,0.00
2018-02-11T05:54:15.088Z,0.00
2018-02-11T05:55:14.999Z,0.00
2018-02-11T05:56:14.909Z,0.00
2018-02-11T05:57:14.829Z,0.00
2018-02-11T05:58:14.747Z,0.00
2018-02-11T05:59:14.661Z,0.00
2018-02-11T06:00:14.578Z,0.00
2018-02-11T06:01:14.504Z,0.00
2018-02-11T06:02:14.425Z,0.00
2018-02-11T06:03:14.331Z,0.00
2018-02-11T06:04:14.236Z,0.00
2018-02-11T06:05:14.154Z,0.00
2018-02-11T06:06:14.083Z,0.00
2018-02-11T06:07:13.986Z,0.00
2018-02-11T06:08:13.901Z,0.00
2018-02-11T06:09:13.816Z,0.00
2018-02-11T06:10:13.732Z,0.00
2018-02-11T06:11:13.653Z,0.00
2018-02-11T06:12:13.563Z,0.00
2018-02-11T06:13:13.477Z,0.00
2018-02-11T06:14:13.387Z,0.00
2018-02-11T06:15:13.315Z,0.00
2018-02-11T06:16:13.233Z,0.00
2018-02-11T06:17:13.139Z,0.00
2018-02-11T06:18:13.057Z,0.00
2018-02-11T06:19:12.979Z,0.00
2018-02-11T06:20:12.890Z,0.00
2018-02-11T06:21:12.804Z,0.00
2018-02-11T06:22:12.713Z,0.00
2018-02-11T06:23:12.630Z,0.00
2018-02-11T06:24:12.556Z,0.00
2018-02-11T06:25:12.466Z,0.00
2018-02-11T06:26:12.383Z,5.63
2018-02-11T06:27:12.307Z,5.63
2018-02-11T06:28:12.220Z,5.63
2018-02-11T06:29:12.130Z,5.63
2018-02-11T06:30:12.039Z,5.63
2018-02-11T06:31:11.968Z,5.63
2018-02-11T06:32:11.884Z,5.63
2018-02-11T06:33:11.799Z,5.63
2018-02-11T06:34:11.704Z,5.63
2018-02-11T06:35:11.621Z,11.25
2018-02-11T06:36:11.524Z,11.25
2018-02-11T06:37:11.457Z,11.25
2018-02-11T06:38:11.366Z,11.25
2018-02-11T06:39:11.277Z,11.25
2018-02-11T06:40:11.208Z,11.25
2018-02-11T06:41:11.103Z,16.88
2018-02-11T06:42:11.032Z,16.88
2018-02-11T06:43:10.942Z,16.88
2018-02-11T06:44:10.851Z,16.88
2018-02-11T06:45:10.770Z,16.88
2018-02-11T06:46:10.704Z,22.50
2018-02-11T06:47:10.604Z,22.50
2018-02-11T06:48:10.532Z,22.50
2018-02-11T06:49:10.426Z,22.50
2018-02-11T06:50:10.361Z,28.13
2018-02-11T06:51:10.270Z,28.13
2018-02-11T06:52:10.176Z,28.13
2018-02-11T06:53:10.111Z,33.75
2018-02-11T06:54:10.005Z,33.75
2018-02-11T06:55:09.927Z,33.75
2018-02-11T06:56:09.856Z,39.38
2018-02-11T06:57:09.756Z,39.38
2018-02-11T06:58:09.673Z,45.00
2018-02-11T06:59:09.609Z,45.00
2018-02-11T07:00:09.513Z,50.63
2018-02-11T07:01:09.433Z,50.63
2018-02-11T07:02:09.329Z,50.63
2018-02-11T07:03:09.255Z,56.25
2018-02-11T07:04:09.182Z,56.25
2018-02-11T07:05:09.080Z,61.88
2018-02-11T07:06:09.010Z,61.88
2018-02-11T07:07:08.911Z,61.88
2018-02-11T07:08:08.832Z,67.50
2018-02-11T07:09:08.750Z,67.50
2018-02-11T07:10:08.659Z,67.50
2018-02-11T07:11:08.571Z,73.13
2018-02-11T07:12:08.510Z,78.75
2018-02-11T07:13:08.410Z,78.75
2018-02-11T07:14:08.327Z,84.38
2018-02-11T07:15:08.234Z,90.00
2018-02-11T07:16:08.154Z,95.63
2018-02-11T07:17:08.078Z,95.63
2018-02-11T07:18:07.991Z,101.25
2018-02-11T07:19:07.907Z,101.25
2018-02-11T07:20:07.817Z,106.88
2018-02-11T07:21:07.737Z,112.50
2018-02-11T07:22:07.658Z,112.50
2018-02-11T07:23:07.564Z,123.75
2018-02-11T07:24:07.489Z,135.00
2018-02-11T07:25:07.415Z,151.88
2018-02-11T07:26:07.307Z,157.50
2018-02-11T07:27:07.219Z,168.75
2018-02-11T07:28:07.136Z,180.00
2018-02-11T07:29:07.058Z,185.63
2018-02-11T07:30:06.979Z,191.25
2018-02-11T07:31:06.895Z,191.25
2018-02-11T07:32:06.807Z,196.88
2018-02-11T07:33:06.725Z,196.88
2018-02-11T07:34:06.631Z,191.25
2018-02-11T07:35:06.556Z,185.63
2018-02-11T07:36:06.466Z,180.00
2018-02-11T07:37:06.386Z,174.38
2018-02-11T07:38:06.316Z,168.75
2018-02-11T07:39:06.215Z,163.13
2018-02-11T07:40:06.138Z,157.50
2018-02-11T07:41:06.061Z,146.25
2018-02-11T07:42:05.967Z,129.38
2018-02-11T07:43:05.881Z,123.75
2018-02-11T07:44:05.786Z,123.75
2018-02-11T07:45:05.718Z,123.75
2018-02-11T07:46:05.621Z,118.13
2018-02-11T07:47:05.546Z,118.13
2018-02-11T07:48:05.462Z,118.13
2018-02-11T07:49:05.386Z,112.50
2018-02-11T07:50:05.293Z,112.50
2018-02-11T07:51:05.217Z,112.50
2018-02-11T07:52:05.125Z,112.50
2018-02-11T07:53:05.043Z,112.50
2018-02-11T07:54:04.950Z,112.50
2018-02-11T07:55:04.860Z,112.50
2018-02-11T07:56:04.789Z,112.50
2018-02-11T07:57:04.704Z,112.50
2018-02-11T07:58:04.614Z,112.50
2018-02-11T07:59:04.544Z,112.50
2018-02-11T08:00:04.452Z,112.50
2018-02-11T08:01:04.370Z,112.50
2018-02-11T08:02:04.286Z,112.50
2018-02-11T08:03:04.202Z,106.88
2018-02-11T08:04:04.117Z,101.25
2018-02-11T08:05:04.042Z,101.25
2018-02-11T08:06:03.944Z,101.25
2018-02-11T08:07:03.877Z,95.63
2018-02-11T08:08:03.773Z,95.63
2018-02-11T08:09:03.693Z,101.25
2018-02-11T08:10:03.600Z,101.25
2018-02-11T08:11:03.528Z,101.25
2018-02-11T08:12:03.441Z,101.25
2018-02-11T08:13:03.362Z,106.88
2018-02-11T08:14:03.276Z,106.88
2018-02-11T08:15:03.194Z,106.88
2018-02-11T08:16:03.110Z,106.88
2018-02-11T08:17:03.021Z,106.88
2018-02-11T08:18:02.942Z,118.13
2018-02-11T08:19:02.862Z,118.13
2018-02-11T08:20:02.765Z,123.75
2018-02-11T08:21:02.686Z,135.00
2018-02-11T08:22:02.606Z,135.00
2018-02-11T08:23:02.521Z,135.00
2018-02-11T08:24:02.428Z,129.38
2018-02-11T08:25:02.343Z,123.75
2018-02-11T08:26:02.262Z,129.38
2018-02-11T08:27:02.176Z,146.25
2018-02-11T08:28:02.098Z,202.50
2018-02-11T08:29:02.014Z,202.50
2018-02-11T08:30:01.932Z,236.25
2018-02-11T08:31:01.844Z,247.50
2018-02-11T08:32:01.752Z,281.25
2018-02-11T08:33:01.682Z,208.13
2018-02-11T08:34:01.592Z,281.25
2018-02-11T08:35:01.504Z,309.38
2018-02-11T08:36:01.420Z,303.75
2018-02-11T08:37:01.343Z,309.38
2018-02-11T08:38:01.256Z,326.25
2018-02-11T08:39:01.167Z,348.75
2018-02-11T08:40:01.090Z,360.00
2018-02-11T08:41:01.008Z,365.63
2018-02-11T08:42:00.918Z,360.00
2018-02-11T08:43:00.842Z,343.13
2018-02-11T08:44:00.770Z,309.38
2018-02-11T08:45:00.669Z,281.25
2018-02-11T08:46:00.593Z,258.75
2018-02-11T08:47:00.528Z,241.88
2018-02-11T08:48:00.416Z,236.25
2018-02-11T08:49:00.346Z,236.25
2018-02-11T08:50:00.255Z,236.25
2018-02-11T08:51:00.172Z,241.88
2018-02-11T08:52:00.097Z,247.50
2018-02-11T08:53:00.007Z,253.13
2018-02-11T08:53:59.926Z,258.75
2018-02-11T08:54:59.849Z,258.75
2018-02-11T08:55:59.766Z,258.75
2018-02-11T08:56:59.672Z,258.75
2018-02-11T08:57:59.596Z,253.13
2018-02-11T08:58:59.511Z,258.75
2018-02-11T08:59:59.426Z,264.38
2018-02-11T09:00:59.344Z,281.25
2018-02-11T09:01:59.261Z,303.75
2018-02-11T09:02:59.178Z,303.75
2018-02-11T09:03:59.095Z,292.50
2018-02-11T09:04:59.024Z,286.88
2018-02-11T09:05:58.918Z,275.63
2018-02-11T09:06:58.846Z,270.00
2018-02-11T09:07:58.771Z,264.38
2018-02-11T09:08:58.698Z,270.00
2018-02-11T09:09:58.601Z,275.63
2018-02-11T09:10:58.516Z,275.63
2018-02-11T09:11:58.434Z,264.38
2018-02-11T09:12:58.346Z,270.00
2018-02-11T09:13:58.256Z,303.75
2018-02-11T09:14:58.196Z,292.50
2018-02-11T09:15:58.098Z,292.50
2018-02-11T09:16:58.013Z,292.50
2018-02-11T09:17:57.950Z,292.50
2018-02-11T09:18:57.848Z,275.63
2018-02-11T09:19:57.768Z,270.00
2018-02-11T09:20:57.701Z,264.38
2018-02-11T09:21:57.600Z,247.50
2018-02-11T09:22:57.524Z,253.13
2018-02-11T09:23:57.450Z,253.13
2018-02-11T09:24:57.366Z,258.75
2018-02-11T09:25:57.273Z,275.63
2018-02-11T09:26:57.198Z,292.50
2018-02-11T09:27:57.099Z,309.38
2018-02-11T09:28:57.031Z,331.88
2018-02-11T09:29:56.950Z,337.50
2018-02-11T09:30:56.850Z,348.75
2018-02-11T09:31:56.777Z,360.00
2018-02-11T09:32:56.685Z,365.63
2018-02-11T09:33:56.614Z,376.88
2018-02-11T09:34:56.528Z,388.13
2018-02-11T09:35:56.436Z,393.75
2018-02-11T09:36:56.363Z,405.00
2018-02-11T09:37:56.275Z,399.38
2018-02-11T09:38:56.196Z,388.13
2018-02-11T09:39:56.130Z,371.25
2018-02-11T09:40:56.023Z,360.00
2018-02-11T09:41:55.958Z,348.75
2018-02-11T09:42:55.868Z,337.50
2018-02-11T09:43:55.775Z,326.25
2018-02-11T09:44:55.707Z,320.63
2018-02-11T09:45:55.621Z,315.00
2018-02-11T09:46:55.536Z,303.75
2018-02-11T09:47:55.453Z,298.13
2018-02-11T09:48:55.376Z,286.88
2018-02-11T09:49:55.303Z,275.63
2018-02-11T09:50:55.198Z,264.38
2018-02-11T09:51:55.133Z,258.75
2018-02-11T09:52:55.042Z,253.13
2018-02-11T09:53:54.956Z,253.13
2018-02-11T09:54:54.878Z,258.75
2018-02-11T09:55:54.790Z,258.75
2018-02-11T09:56:54.708Z,270.00
2018-02-11T09:57:54.629Z,281.25
2018-02-11T09:58:54.538Z,292.50
2018-02-11T09:59:54.466Z,309.38
2018-02-11T10:00:54.380Z,320.63
2018-02-11T10:01:54.293Z,331.88
2018-02-11T10:02:54.233Z,337.50
2018-02-11T10:03:54.128Z,343.13
2018-02-11T10:04:54.056Z,348.75
2018-02-11T10:05:53.979Z,348.75
2018-02-11T10:06:53.877Z,337.50
2018-02-11T10:07:53.891Z,315.00
2018-02-11T10:08:53.724Z,298.13
2018-02-11T10:09:53.785Z,292.50
2018-02-11T10:10:53.612Z,298.13
2018-02-11T10:11:53.480Z,309.38
2018-02-11T10:12:53.431Z,331.88
2018-02-11T10:13:53.305Z,360.00
2018-02-11T10:14:53.226Z,382.50
2018-02-11T10:15:53.145Z,405.00
2018-02-11T10:16:53.055Z,399.38
2018-02-11T10:17:52.998Z,382.50
2018-02-11T10:18:52.897Z,405.00
2018-02-11T10:19:52.813Z,410.63
2018-02-11T10:20:52.729Z,416.25
2018-02-11T10:21:52.644Z,433.13
2018-02-11T10:22:52.558Z,444.38
2018-02-11T10:23:52.479Z,416.25
2018-02-11T10:24:52.393Z,405.00
2018-02-11T10:25:52.321Z,393.75
2018-02-11T10:26:52.234Z,382.50
2018-02-11T10:27:52.142Z,365.63
2018-02-11T10:28:52.086Z,376.88
2018-02-11T10:29:51.981Z,393.75
2018-02-11T10:30:51.915Z,399.38
2018-02-11T10:31:51.835Z,393.75
2018-02-11T10:32:51.860Z,365.63
2018-02-11T10:33:51.663Z,354.38
2018-02-11T10:34:51.583Z,360.00
2018-02-11T10:35:51.492Z,382.50
2018-02-11T10:36:51.411Z,382.50
2018-02-11T10:37:51.329Z,376.88
2018-02-11T10:38:51.244Z,360.00
2018-02-11T10:39:51.163Z,371.25
2018-02-11T10:40:51.078Z,376.88
2018-02-11T10:41:50.996Z,371.25
2018-02-11T10:42:50.920Z,343.13
2018-02-11T10:43:50.828Z,343.13
2018-02-11T10:44:50.762Z,354.38
2018-02-11T10:45:50.670Z,360.00
2018-02-11T10:46:50.581Z,365.63
2018-02-11T10:47:50.511Z,365.63
2018-02-11T10:48:50.428Z,337.50
2018-02-11T10:49:50.334Z,315.00
2018-02-11T10:50:50.258Z,286.88
2018-02-11T10:51:50.169Z,258.75
2018-02-11T10:52:50.101Z,213.75
2018-02-11T10:53:50.011Z,185.63
2018-02-11T10:54:49.934Z,185.63
2018-02-11T10:55:49.853Z,213.75
2018-02-11T10:56:49.769Z,230.63
2018-02-11T10:57:49.685Z,241.88
2018-02-11T10:58:49.610Z,241.88
2018-02-11T10:59:49.531Z,253.13
2018-02-11T11:00:49.436Z,275.63
2018-02-11T11:01:49.360Z,275.63
2018-02-11T11:02:49.271Z,247.50
2018-02-11T11:03:49.188Z,213.75
2018-02-11T11:04:49.107Z,168.75
2018-02-11T11:05:49.024Z,180.00
2018-02-11T11:06:48.955Z,191.25
2018-02-11T11:07:48.860Z,208.13
2018-02-11T11:08:48.790Z,219.38
2018-02-11T11:09:48.695Z,236.25
2018-02-11T11:10:48.607Z,241.88
2018-02-11T11:11:48.537Z,247.50
2018-02-11T11:12:48.449Z,281.25
2018-02-11T11:13:48.364Z,315.00
2018-02-11T11:14:48.290Z,354.38
2018-02-11T11:15:48.201Z,393.75
2018-02-11T11:16:48.136Z,433.13
2018-02-11T11:17:48.032Z,450.00
2018-02-11T11:18:47.951Z,450.00
2018-02-11T11:19:47.879Z,461.25
2018-02-11T11:20:47.799Z,495.00
2018-02-11T11:21:47.704Z,478.13
2018-02-11T11:22:47.628Z,455.63
2018-02-11T11:23:47.535Z,450.00
2018-02-11T11:24:47.464Z,427.50
2018-02-11T11:25:47.378Z,388.13
2018-02-11T11:26:47.286Z,388.13
2018-02-11T11:27:47.217Z,393.75
2018-02-11T11:28:47.122Z,393.75
2018-02-11T11:29:47.044Z,399.38
2018-02-11T11:30:46.967Z,405.00
2018-02-11T11:31:46.873Z,393.75
2018-02-11T11:32:46.796Z,365.63
2018-02-11T11:33:46.712Z,354.38
2018-02-11T11:34:46.625Z,348.75
2018-02-11T11:35:46.553Z,343.13
2018-02-11T11:36:46.460Z,331.88
2018-02-11T11:37:46.387Z,343.13
2018-02-11T11:38:46.347Z,354.38
2018-02-11T11:39:46.212Z,343.13
2018-02-11T11:40:46.142Z,331.88
2018-02-11T11:41:46.054Z,343.13
2018-02-11T11:42:45.968Z,382.50
2018-02-11T11:43:45.894Z,410.63
2018-02-11T11:44:45.804Z,405.00
2018-02-11T11:45:45.718Z,410.63
2018-02-11T11:46:45.642Z,399.38
2018-02-11T11:47:45.563Z,354.38
2018-02-11T11:48:45.466Z,320.63
2018-02-11T11:49:45.392Z,286.88
2018-02-11T11:50:45.312Z,264.38
2018-02-11T11:51:45.224Z,264.38
2018-02-11T11:52:45.142Z,270.00
2018-02-11T11:53:45.058Z,286.88
2018-02-11T11:54:44.986Z,303.75
2018-02-11T11:55:44.891Z,303.75
2018-02-11T11:56:44.803Z,309.38
2018-02-11T11:57:44.743Z,315.00
2018-02-11T11:58:44.642Z,292.50
2018-02-11T11:59:44.554Z,258.75
2018-02-11T12:00:44.479Z,253.13
2018-02-11T12:01:44.387Z,241.88
2018-02-11T12:02:44.317Z,236.25
2018-02-11T12:03:44.240Z,230.63
2018-02-11T12:04:44.139Z,236.25
2018-02-11T12:05:44.071Z,236.25
2018-02-11T12:06:43.986Z,202.50
2018-02-11T12:07:43.889Z,185.63
2018-02-11T12:08:43.823Z,174.38
2018-02-11T12:09:43.733Z,208.13
2018-02-11T12:10:43.643Z,191.25
2018-02-11T12:11:43.567Z,174.38
2018-02-11T12:12:43.476Z,180.00
2018-02-11T12:13:43.401Z,191.25
2018-02-11T12:14:43.317Z,219.38
2018-02-11T12:15:43.227Z,219.38
2018-02-11T12:16:43.163Z,225.00
2018-02-11T12:17:43.069Z,253.13
2018-02-11T12:18:42.980Z,275.63
2018-02-11T12:19:42.910Z,253.13
2018-02-11T12:20:42.814Z,230.63
2018-02-11T12:21:42.738Z,247.50
2018-02-11T12:22:42.673Z,286.88
2018-02-11T12:23:42.571Z,270.00
2018-02-11T12:24:42.501Z,258.75
2018-02-11T12:25:42.405Z,247.50
2018-02-11T12:26:42.320Z,225.00
2018-02-11T12:27:42.247Z,241.88
2018-02-11T12:28:42.169Z,225.00
2018-02-11T12:29:42.071Z,202.50
2018-02-11T12:30:41.997Z,185.63
2018-02-11T12:31:41.907Z,157.50
2018-02-11T12:32:41.820Z,146.25
2018-02-11T12:33:41.744Z,146.25
2018-02-11T12:34:41.672Z,157.50
2018-02-11T12:35:41.574Z,135.00
2018-02-11T12:36:41.496Z,146.25
2018-02-11T12:37:41.422Z,140.63
2018-02-11T12:38:41.325Z,146.25
2018-02-11T12:39:41.244Z,151.88
2018-02-11T12:40:41.171Z,163.13
2018-02-11T12:41:41.067Z,146.25
2018-02-11T12:42:40.994Z,146.25
2018-02-11T12:43:40.913Z,174.38
2018-02-11T12:44:40.823Z,168.75
2018-02-11T12:45:40.735Z,151.88
2018-02-11T12:46:40.678Z,129.38
2018-02-11T12:47:40.568Z,151.88
2018-02-11T12:48:40.489Z,174.38
2018-02-11T12:49:40.412Z,168.75
2018-02-11T12:50:40.322Z,185.63
2018-02-11T12:51:40.238Z,180.00
2018-02-11T12:52:40.174Z,146.25
2018-02-11T12:53:40.072Z,135.00